sensor_id;sensor_type;location;lat;lon;timestamp;pressure;altitude;pressure_sealevel;temperature;humidity
52469;BME280;38381;53.688;10.776;2022-08-02T00:01:44;101550.50;;;14.08;73.88
52469;BME280;38381;53.688;10.776;2022-08-02T00:06:44;101552.22;;;14.00;74.32
52469;BME280;38381;53.688;10.776;2022-08-02T00:11:45;101547.81;;;13.89;74.72
52469;BME280;38381;53.688;10.776;2022-08-02T00:16:45;101550.38;;;13.82;74.26
52469;BME280;38381;53.688;10.776;2022-08-02T00:21:45;101547.72;;;13.73;74.30
52469;BME280;38381;53.688;10.776;2022-08-02T00:26:46;101553.75;;;13.64;74.39
52469;BME280;38381;53.688;10.776;2022-08-02T00:31:46;101559.81;;;13.60;74.04
52469;BME280;38381;53.688;10.776;2022-08-02T00:36:46;101552.78;;;13.48;74.48
52469;BME280;38381;53.688;10.776;2022-08-02T00:41:49;101554.44;;;13.38;75.04
52469;BME280;38381;53.688;10.776;2022-08-02T00:46:50;101559.56;;;13.31;75.65
52469;BME280;38381;53.688;10.776;2022-08-02T00:51:50;101569.09;;;13.27;75.75
52469;BME280;38381;53.688;10.776;2022-08-02T00:56:51;101566.41;;;13.22;76.19
52469;BME280;38381;53.688;10.776;2022-08-02T01:01:51;101568.09;;;13.16;76.58
52469;BME280;38381;53.688;10.776;2022-08-02T01:06:51;101567.16;;;13.07;76.83
52469;BME280;38381;53.688;10.776;2022-08-02T01:11:52;101571.47;;;13.02;77.32
52469;BME280;38381;53.688;10.776;2022-08-02T01:17:06;101575.78;;;13.00;76.95
52469;BME280;38381;53.688;10.776;2022-08-02T01:32:49;101568.66;;;12.81;76.88
52469;BME280;38381;53.688;10.776;2022-08-02T01:37:57;101581.56;;;12.70;78.06
52469;BME280;38381;53.688;10.776;2022-08-02T01:43:01;101581.44;;;12.61;78.55
52469;BME280;38381;53.688;10.776;2022-08-02T01:48:03;101588.34;;;12.59;78.44
52469;BME280;38381;53.688;10.776;2022-08-02T01:53:05;101588.25;;;12.50;78.32
52469;BME280;38381;53.688;10.776;2022-08-02T01:58:06;101592.50;;;12.41;78.29
52469;BME280;38381;53.688;10.776;2022-08-02T02:03:12;101582.03;;;12.37;78.28
52469;BME280;38381;53.688;10.776;2022-08-02T02:08:15;101579.38;;;12.31;78.69
52469;BME280;38381;53.688;10.776;2022-08-02T02:13:19;101574.06;;;12.23;77.62
52469;BME280;38381;53.688;10.776;2022-08-02T02:18:24;101572.16;;;12.11;78.21
52469;BME280;38381;53.688;10.776;2022-08-02T02:23:26;101572.13;;;12.06;78.46
52469;BME280;38381;53.688;10.776;2022-08-02T02:28:29;101578.97;;;12.00;78.85
52469;BME280;38381;53.688;10.776;2022-08-02T02:33:32;101576.13;;;11.86;78.90
52469;BME280;38381;53.688;10.776;2022-08-02T02:38:33;101580.47;;;11.87;77.65
52469;BME280;38381;53.688;10.776;2022-08-02T02:43:36;101592.38;;;11.73;77.72
52469;BME280;38381;53.688;10.776;2022-08-02T02:48:37;101587.97;;;11.65;77.82
52469;BME280;38381;53.688;10.776;2022-08-02T02:53:40;101586.91;;;11.54;77.88
52469;BME280;38381;53.688;10.776;2022-08-02T02:58:42;101590.25;;;11.45;79.33
52469;BME280;38381;53.688;10.776;2022-08-02T03:03:43;101587.38;;;11.28;79.97
52469;BME280;38381;53.688;10.776;2022-08-02T03:08:45;101583.91;;;11.28;79.97
52469;BME280;38381;53.688;10.776;2022-08-02T03:13:45;101573.47;;;11.25;80.75
52469;BME280;38381;53.688;10.776;2022-08-02T03:18:46;101562.09;;;11.18;78.97
52469;BME280;38381;53.688;10.776;2022-08-02T03:23:46;101551.53;;;11.09;80.87
52469;BME280;38381;53.688;10.776;2022-08-02T03:28:47;101558.38;;;11.02;80.41
52469;BME280;38381;53.688;10.776;2022-08-02T03:33:48;101552.91;;;10.88;81.20
52469;BME280;38381;53.688;10.776;2022-08-02T03:38:50;101552.81;;;10.81;81.41
52469;BME280;38381;53.688;10.776;2022-08-02T03:43:51;101562.22;;;10.76;81.87
52469;BME280;38381;53.688;10.776;2022-08-02T03:48:53;101554.16;;;10.62;82.13
52469;BME280;38381;53.688;10.776;2022-08-02T03:53:54;101554.22;;;10.65;83.50
52469;BME280;38381;53.688;10.776;2022-08-02T03:59:14;101551.53;;;10.59;83.26
52469;BME280;38381;53.688;10.776;2022-08-02T04:04:14;101561.81;;;10.54;82.98
52469;BME280;38381;53.688;10.776;2022-08-02T04:09:14;101566.16;;;10.55;82.89
52469;BME280;38381;53.688;10.776;2022-08-02T04:14:15;101564.41;;;10.54;83.07
52469;BME280;38381;53.688;10.776;2022-08-02T04:19:26;101577.50;;;10.60;83.21
52469;BME280;38381;53.688;10.776;2022-08-02T04:24:28;101578.56;;;10.72;83.21
52469;BME280;38381;53.688;10.776;2022-08-02T04:29:31;101580.38;;;10.76;82.87
52469;BME280;38381;53.688;10.776;2022-08-02T04:34:32;101582.09;;;10.75;82.92
52469;BME280;38381;53.688;10.776;2022-08-02T04:39:33;101583.78;;;10.73;82.17
52469;BME280;38381;53.688;10.776;2022-08-02T04:44:33;101579.53;;;10.78;82.30
52469;BME280;38381;53.688;10.776;2022-08-02T04:49:34;101576.59;;;10.58;83.49
52469;BME280;38381;53.688;10.776;2022-08-02T04:54:34;101576.09;;;10.78;83.21
52469;BME280;38381;53.688;10.776;2022-08-02T04:59:34;101590.72;;;10.74;83.96
52469;BME280;38381;53.688;10.776;2022-08-02T05:04:35;101588.41;;;10.90;83.76
52469;BME280;38381;53.688;10.776;2022-08-02T05:09:35;101593.72;;;10.96;84.29
52469;BME280;38381;53.688;10.776;2022-08-02T05:14:35;101593.97;;;11.10;84.72
52469;BME280;38381;53.688;10.776;2022-08-02T05:19:35;101574.91;;;11.09;86.68
52469;BME280;38381;53.688;10.776;2022-08-02T05:24:36;101570.63;;;11.11;87.68
52469;BME280;38381;53.688;10.776;2022-08-02T05:29:36;101578.91;;;11.40;86.32
52469;BME280;38381;53.688;10.776;2022-08-02T05:34:36;101583.16;;;11.35;86.14
52469;BME280;38381;53.688;10.776;2022-08-02T05:39:37;101587.44;;;11.33;86.59
52469;BME280;38381;53.688;10.776;2022-08-02T05:44:38;101591.88;;;11.39;86.48
52469;BME280;38381;53.688;10.776;2022-08-02T05:49:39;101599.91;;;11.54;86.23
52469;BME280;38381;53.688;10.776;2022-08-02T06:05:20;101589.44;;;12.04;86.52
52469;BME280;38381;53.688;10.776;2022-08-02T06:10:21;101594.00;;;12.22;86.19
52469;BME280;38381;53.688;10.776;2022-08-02T06:15:21;101613.38;;;12.46;85.43
52469;BME280;38381;53.688;10.776;2022-08-02T06:20:23;101599.88;;;12.78;84.20
52469;BME280;38381;53.688;10.776;2022-08-02T06:25:26;101597.38;;;12.88;84.17
52469;BME280;38381;53.688;10.776;2022-08-02T06:30:28;101583.72;;;13.16;83.91
52469;BME280;38381;53.688;10.776;2022-08-02T06:35:52;101590.84;;;13.32;82.19
52469;BME280;38381;53.688;10.776;2022-08-02T06:41:08;101584.19;;;13.71;79.95
52469;BME280;38381;53.688;10.776;2022-08-02T06:46:09;101587.06;;;14.11;77.36
52469;BME280;38381;53.688;10.776;2022-08-02T06:51:09;101575.91;;;14.54;74.21
52469;BME280;38381;53.688;10.776;2022-08-02T06:56:10;101575.22;;;15.36;71.99
52469;BME280;38381;53.688;10.776;2022-08-02T07:01:11;101562.94;;;15.84;69.65
52469;BME280;38381;53.688;10.776;2022-08-02T07:06:11;101561.81;;;16.48;66.73
52469;BME280;38381;53.688;10.776;2022-08-02T07:11:12;101554.84;;;16.54;66.34
52469;BME280;38381;53.688;10.776;2022-08-02T07:16:12;101561.56;;;16.98;66.28
52469;BME280;38381;53.688;10.776;2022-08-02T07:21:12;101571.03;;;17.19;64.37
52469;BME280;38381;53.688;10.776;2022-08-02T07:26:12;101571.78;;;17.30;62.95
52469;BME280;38381;53.688;10.776;2022-08-02T07:31:13;101563.13;;;17.22;63.11
52469;BME280;38381;53.688;10.776;2022-08-02T07:36:13;101553.38;;;17.39;62.61
52469;BME280;38381;53.688;10.776;2022-08-02T07:41:13;101548.25;;;17.25;62.73
52469;BME280;38381;53.688;10.776;2022-08-02T07:46:13;101554.97;;;17.53;62.54
52469;BME280;38381;53.688;10.776;2022-08-02T07:51:14;101561.25;;;17.38;61.98
52469;BME280;38381;53.688;10.776;2022-08-02T07:56:14;101549.97;;;17.28;63.67
52469;BME280;38381;53.688;10.776;2022-08-02T08:01:14;101537.59;;;17.42;62.00
52469;BME280;38381;53.688;10.776;2022-08-02T08:06:15;101541.63;;;17.77;61.45
52469;BME280;38381;53.688;10.776;2022-08-02T08:11:16;101549.56;;;17.71;59.68
52469;BME280;38381;53.688;10.776;2022-08-02T08:16:17;101559.81;;;17.94;59.62
52469;BME280;38381;53.688;10.776;2022-08-02T08:21:17;101550.94;;;18.06;59.65
52469;BME280;38381;53.688;10.776;2022-08-02T08:26:17;101538.44;;;18.26;58.12
52469;BME280;38381;53.688;10.776;2022-08-02T08:31:18;101543.19;;;17.97;58.94
52469;BME280;38381;53.688;10.776;2022-08-02T08:36:18;101540.09;;;18.34;57.50
52469;BME280;38381;53.688;10.776;2022-08-02T08:41:20;101520.88;;;18.32;56.75
52469;BME280;38381;53.688;10.776;2022-08-02T08:46:31;101500.31;;;18.60;53.90
52469;BME280;38381;53.688;10.776;2022-08-02T08:51:39;101494.19;;;18.59;55.21
52469;BME280;38381;53.688;10.776;2022-08-02T08:56:41;101487.47;;;18.99;54.77
52469;BME280;38381;53.688;10.776;2022-08-02T09:01:43;101500.56;;;19.52;52.63
52469;BME280;38381;53.688;10.776;2022-08-02T09:06:44;101491.81;;;19.01;51.78
52469;BME280;38381;53.688;10.776;2022-08-02T09:11:44;101491.16;;;19.38;53.27
52469;BME280;38381;53.688;10.776;2022-08-02T09:16:45;101469.44;;;19.75;51.75
52469;BME280;38381;53.688;10.776;2022-08-02T09:21:47;101479.72;;;19.41;47.90
52469;BME280;38381;53.688;10.776;2022-08-02T09:26:49;101468.63;;;19.68;48.62
52469;BME280;38381;53.688;10.776;2022-08-02T09:31:50;101476.69;;;20.06;47.31
52469;BME280;38381;53.688;10.776;2022-08-02T09:36:50;101473.53;;;19.43;47.08
52469;BME280;38381;53.688;10.776;2022-08-02T09:41:50;101477.19;;;20.23;46.94
52469;BME280;38381;53.688;10.776;2022-08-02T09:46:51;101462.28;;;20.61;46.09
52469;BME280;38381;53.688;10.776;2022-08-02T09:51:52;101450.34;;;20.82;46.94
52469;BME280;38381;53.688;10.776;2022-08-02T09:57:00;101444.69;;;20.62;46.67
52469;BME280;38381;53.688;10.776;2022-08-02T10:02:08;101447.25;;;20.65;46.90
52469;BME280;38381;53.688;10.776;2022-08-02T10:07:09;101465.38;;;20.79;45.75
52469;BME280;38381;53.688;10.776;2022-08-02T10:12:11;101451.09;;;20.87;46.81
52469;BME280;38381;53.688;10.776;2022-08-02T10:17:12;101450.53;;;21.43;45.28
52469;BME280;38381;53.688;10.776;2022-08-02T10:22:15;101437.41;;;21.39;46.27
52469;BME280;38381;53.688;10.776;2022-08-02T10:27:18;101444.41;;;21.41;45.57
52469;BME280;38381;53.688;10.776;2022-08-02T10:32:38;101441.19;;;21.93;42.49
52469;BME280;38381;53.688;10.776;2022-08-02T10:37:43;101432.28;;;21.65;44.42
52469;BME280;38381;53.688;10.776;2022-08-02T10:42:47;101437.00;;;21.85;45.40
52469;BME280;38381;53.688;10.776;2022-08-02T10:48:06;101429.53;;;22.29;45.55
52469;BME280;38381;53.688;10.776;2022-08-02T10:58:26;101428.53;;;22.60;42.33
52469;BME280;38381;53.688;10.776;2022-08-02T11:08:27;101419.22;;;23.00;42.30
52469;BME280;38381;53.688;10.776;2022-08-02T11:13:28;101415.75;;;22.73;42.54
52469;BME280;38381;53.688;10.776;2022-08-02T11:23:51;101398.47;;;22.63;44.11
52469;BME280;38381;53.688;10.776;2022-08-02T11:28:52;101396.16;;;23.05;43.33
52469;BME280;38381;53.688;10.776;2022-08-02T11:33:52;101387.69;;;23.44;42.96
52469;BME280;38381;53.688;10.776;2022-08-02T11:39:12;101381.69;;;23.16;41.72
52469;BME280;38381;53.688;10.776;2022-08-02T11:44:14;101383.50;;;23.14;42.00
52469;BME280;38381;53.688;10.776;2022-08-02T11:49:17;101374.03;;;23.55;39.92
52469;BME280;38381;53.688;10.776;2022-08-02T11:54:29;101373.75;;;23.63;41.66
52469;BME280;38381;53.688;10.776;2022-08-02T11:59:30;101373.56;;;23.67;41.04
52469;BME280;38381;53.688;10.776;2022-08-02T12:04:30;101366.84;;;24.04;39.62
52469;BME280;38381;53.688;10.776;2022-08-02T12:09:32;101373.69;;;23.88;40.83
52469;BME280;38381;53.688;10.776;2022-08-02T12:14:41;101374.66;;;24.07;40.70
52469;BME280;38381;53.688;10.776;2022-08-02T12:19:43;101364.69;;;24.14;40.30
52469;BME280;38381;53.688;10.776;2022-08-02T12:24:46;101357.53;;;23.70;41.82
52469;BME280;38381;53.688;10.776;2022-08-02T12:29:47;101349.03;;;23.86;41.13
52469;BME280;38381;53.688;10.776;2022-08-02T12:34:59;101327.88;;;24.28;41.43
52469;BME280;38381;53.688;10.776;2022-08-02T12:40:24;101326.88;;;24.53;41.36
52469;BME280;38381;53.688;10.776;2022-08-02T12:45:27;101317.41;;;24.46;41.77
52469;BME280;38381;53.688;10.776;2022-08-02T12:50:31;101328.38;;;24.59;41.65
52469;BME280;38381;53.688;10.776;2022-08-02T12:55:34;101335.00;;;24.06;41.90
52469;BME280;38381;53.688;10.776;2022-08-02T13:00:37;101308.25;;;24.12;41.49
52469;BME280;38381;53.688;10.776;2022-08-02T13:05:37;101317.69;;;24.18;41.77
52469;BME280;38381;53.688;10.776;2022-08-02T13:10:38;101314.19;;;24.80;40.66
52469;BME280;38381;53.688;10.776;2022-08-02T13:15:38;101306.41;;;24.96;40.72
52469;BME280;38381;53.688;10.776;2022-08-02T13:20:38;101300.00;;;24.61;41.40
52469;BME280;38381;53.688;10.776;2022-08-02T13:25:40;101291.19;;;24.60;39.68
52469;BME280;38381;53.688;10.776;2022-08-02T13:30:40;101284.47;;;25.12;38.82
52469;BME280;38381;53.688;10.776;2022-08-02T13:35:42;101283.66;;;24.51;38.13
52469;BME280;38381;53.688;10.776;2022-08-02T13:40:42;101281.63;;;24.77;38.53
52469;BME280;38381;53.688;10.776;2022-08-02T13:46:03;101284.84;;;24.83;38.23
52469;BME280;38381;53.688;10.776;2022-08-02T13:51:03;101279.41;;;24.86;38.33
52469;BME280;38381;53.688;10.776;2022-08-02T13:56:06;101284.13;;;25.19;37.71
52469;BME280;38381;53.688;10.776;2022-08-02T14:01:07;101279.19;;;25.49;36.86
52469;BME280;38381;53.688;10.776;2022-08-02T14:06:07;101275.53;;;25.33;36.98
52469;BME280;38381;53.688;10.776;2022-08-02T14:11:08;101272.16;;;25.48;36.64
52469;BME280;38381;53.688;10.776;2022-08-02T14:16:08;101263.59;;;25.61;36.81
52469;BME280;38381;53.688;10.776;2022-08-02T14:21:09;101258.06;;;25.46;37.19
52469;BME280;38381;53.688;10.776;2022-08-02T14:26:09;101253.00;;;25.78;37.66
52469;BME280;38381;53.688;10.776;2022-08-02T14:31:10;101242.97;;;25.66;37.13
52469;BME280;38381;53.688;10.776;2022-08-02T14:36:10;101254.09;;;25.74;37.31
52469;BME280;38381;53.688;10.776;2022-08-02T14:41:10;101248.44;;;25.99;36.69
52469;BME280;38381;53.688;10.776;2022-08-02T14:46:10;101251.56;;;26.07;35.52
52469;BME280;38381;53.688;10.776;2022-08-02T14:51:11;101256.50;;;26.15;36.77
52469;BME280;38381;53.688;10.776;2022-08-02T14:56:12;101254.53;;;26.19;35.93
52469;BME280;38381;53.688;10.776;2022-08-02T15:01:13;101243.72;;;26.04;35.71
52469;BME280;38381;53.688;10.776;2022-08-02T15:06:13;101229.66;;;26.02;36.40
52469;BME280;38381;53.688;10.776;2022-08-02T15:11:14;101229.09;;;26.30;35.01
52469;BME280;38381;53.688;10.776;2022-08-02T15:16:14;101231.88;;;26.12;34.36
52469;BME280;38381;53.688;10.776;2022-08-02T15:21:14;101224.81;;;26.28;35.01
52469;BME280;38381;53.688;10.776;2022-08-02T15:26:15;101225.91;;;26.24;34.68
52469;BME280;38381;53.688;10.776;2022-08-02T15:31:15;101223.19;;;26.08;34.19
52469;BME280;38381;53.688;10.776;2022-08-02T15:36:16;101219.66;;;26.07;34.48
52469;BME280;38381;53.688;10.776;2022-08-02T15:41:16;101220.44;;;26.09;34.89
52469;BME280;38381;53.688;10.776;2022-08-02T15:46:17;101211.31;;;26.15;35.02
52469;BME280;38381;53.688;10.776;2022-08-02T15:51:17;101215.38;;;26.05;34.66
52469;BME280;38381;53.688;10.776;2022-08-02T15:56:17;101203.88;;;26.22;35.55
52469;BME280;38381;53.688;10.776;2022-08-02T16:01:18;101201.34;;;26.36;34.92
52469;BME280;38381;53.688;10.776;2022-08-02T16:06:18;101189.06;;;26.34;34.97
52469;BME280;38381;53.688;10.776;2022-08-02T16:11:19;101185.91;;;26.43;34.50
52469;BME280;38381;53.688;10.776;2022-08-02T16:16:21;101194.84;;;26.42;33.85
52469;BME280;38381;53.688;10.776;2022-08-02T16:21:22;101188.75;;;26.40;33.95
52469;BME280;38381;53.688;10.776;2022-08-02T16:26:23;101192.53;;;26.18;35.35
52469;BME280;38381;53.688;10.776;2022-08-02T16:31:25;101198.16;;;26.29;34.99
52469;BME280;38381;53.688;10.776;2022-08-02T16:36:26;101205.97;;;26.33;35.40
52469;BME280;38381;53.688;10.776;2022-08-02T16:41:26;101207.00;;;26.13;36.33
52469;BME280;38381;53.688;10.776;2022-08-02T16:46:30;101209.75;;;25.94;36.79
52469;BME280;38381;53.688;10.776;2022-08-02T16:51:30;101201.75;;;25.76;37.98
52469;BME280;38381;53.688;10.776;2022-08-02T16:56:30;101205.78;;;25.83;37.73
52469;BME280;38381;53.688;10.776;2022-08-02T17:01:31;101210.50;;;25.78;38.66
52469;BME280;38381;53.688;10.776;2022-08-02T17:06:31;101203.31;;;25.80;38.79
52469;BME280;38381;53.688;10.776;2022-08-02T17:11:31;101201.75;;;25.76;38.22
52469;BME280;38381;53.688;10.776;2022-08-02T17:16:32;101195.53;;;25.58;39.25
52469;BME280;38381;53.688;10.776;2022-08-02T17:21:32;101197.34;;;25.58;39.10
52469;BME280;38381;53.688;10.776;2022-08-02T17:26:34;101204.84;;;25.49;39.50
52469;BME280;38381;53.688;10.776;2022-08-02T17:31:34;101209.91;;;25.54;39.58
52469;BME280;38381;53.688;10.776;2022-08-02T17:36:34;101201.59;;;25.43;39.91
52469;BME280;38381;53.688;10.776;2022-08-02T17:41:35;101207.69;;;25.45;40.61
52469;BME280;38381;53.688;10.776;2022-08-02T17:46:37;101204.16;;;25.27;40.73
52469;BME280;38381;53.688;10.776;2022-08-02T17:51:37;101199.41;;;25.15;41.93
52469;BME280;38381;53.688;10.776;2022-08-02T17:56:37;101195.53;;;25.22;42.25
52469;BME280;38381;53.688;10.776;2022-08-02T18:01:38;101192.22;;;25.17;41.99
52469;BME280;38381;53.688;10.776;2022-08-02T18:06:44;101186.13;;;25.15;42.38
52469;BME280;38381;53.688;10.776;2022-08-02T18:11:45;101188.78;;;25.15;43.63
52469;BME280;38381;53.688;10.776;2022-08-02T18:16:47;101177.38;;;25.13;43.52
52469;BME280;38381;53.688;10.776;2022-08-02T18:21:47;101173.28;;;25.05;44.72
52469;BME280;38381;53.688;10.776;2022-08-02T18:26:48;101172.22;;;24.90;45.29
52469;BME280;38381;53.688;10.776;2022-08-02T18:31:49;101169.13;;;24.81;45.39
52469;BME280;38381;53.688;10.776;2022-08-02T18:36:49;101182.84;;;24.72;46.25
52469;BME280;38381;53.688;10.776;2022-08-02T18:41:49;101182.06;;;24.49;47.03
52469;BME280;38381;53.688;10.776;2022-08-02T18:46:49;101179.41;;;24.49;47.28
52469;BME280;38381;53.688;10.776;2022-08-02T18:51:50;101183.94;;;24.26;47.98
52469;BME280;38381;53.688;10.776;2022-08-02T18:56:50;101185.34;;;24.15;48.44
52469;BME280;38381;53.688;10.776;2022-08-02T19:01:51;101181.69;;;24.17;47.63
52469;BME280;38381;53.688;10.776;2022-08-02T19:06:52;101183.81;;;23.88;49.23
52469;BME280;38381;53.688;10.776;2022-08-02T19:11:52;101183.19;;;23.60;49.89
52469;BME280;38381;53.688;10.776;2022-08-02T19:16:52;101180.25;;;23.67;49.93
52469;BME280;38381;53.688;10.776;2022-08-02T19:21:53;101187.94;;;23.74;49.75
52469;BME280;38381;53.688;10.776;2022-08-02T19:26:53;101184.53;;;23.70;49.13
52469;BME280;38381;53.688;10.776;2022-08-02T19:31:53;101180.16;;;23.48;50.39
52469;BME280;38381;53.688;10.776;2022-08-02T19:41:54;101190.69;;;23.28;50.86
52469;BME280;38381;53.688;10.776;2022-08-02T19:46:56;101193.56;;;23.22;51.94
52469;BME280;38381;53.688;10.776;2022-08-02T19:51:56;101189.91;;;23.01;53.26
52469;BME280;38381;53.688;10.776;2022-08-02T19:56:56;101184.81;;;22.96;52.97
52469;BME280;38381;53.688;10.776;2022-08-02T20:01:57;101185.75;;;22.72;52.96
52469;BME280;38381;53.688;10.776;2022-08-02T20:06:57;101192.13;;;22.89;52.36
52469;BME280;38381;53.688;10.776;2022-08-02T20:11:59;101184.09;;;22.69;53.54
52469;BME280;38381;53.688;10.776;2022-08-02T20:16:59;101181.44;;;22.69;53.31
52469;BME280;38381;53.688;10.776;2022-08-02T20:21:59;101183.69;;;22.56;53.39
52469;BME280;38381;53.688;10.776;2022-08-02T20:27:00;101182.97;;;22.51;53.39
52469;BME280;38381;53.688;10.776;2022-08-02T20:32:01;101177.75;;;22.49;53.34
52469;BME280;38381;53.688;10.776;2022-08-02T20:37:03;101188.97;;;22.56;53.30
52469;BME280;38381;53.688;10.776;2022-08-02T20:42:03;101186.69;;;22.45;53.75
52469;BME280;38381;53.688;10.776;2022-08-02T20:47:04;101193.13;;;22.38;53.93
52469;BME280;38381;53.688;10.776;2022-08-02T20:52:04;101196.53;;;22.42;54.11
52469;BME280;38381;53.688;10.776;2022-08-02T20:57:04;101192.78;;;22.24;53.78
52469;BME280;38381;53.688;10.776;2022-08-02T21:02:05;101190.34;;;22.16;53.88
52469;BME280;38381;53.688;10.776;2022-08-02T21:07:05;101190.13;;;21.97;54.33
52469;BME280;38381;53.688;10.776;2022-08-02T21:12:06;101199.34;;;21.85;54.35
52469;BME280;38381;53.688;10.776;2022-08-02T21:17:06;101190.81;;;21.77;54.30
52469;BME280;38381;53.688;10.776;2022-08-02T21:22:07;101177.84;;;21.96;54.00
52469;BME280;38381;53.688;10.776;2022-08-02T21:27:08;101177.84;;;21.96;54.01
52469;BME280;38381;53.688;10.776;2022-08-02T21:32:08;101184.50;;;21.81;54.61
52469;BME280;38381;53.688;10.776;2022-08-02T21:37:08;101180.41;;;21.73;54.97
52469;BME280;38381;53.688;10.776;2022-08-02T21:42:08;101174.47;;;21.66;54.45
52469;BME280;38381;53.688;10.776;2022-08-02T21:47:09;101174.00;;;21.53;55.19
52469;BME280;38381;53.688;10.776;2022-08-02T21:52:10;101170.69;;;21.46;55.08
52469;BME280;38381;53.688;10.776;2022-08-02T21:57:10;101174.19;;;21.47;55.00
52469;BME280;38381;53.688;10.776;2022-08-02T22:02:11;101175.16;;;21.44;55.15
52469;BME280;38381;53.688;10.776;2022-08-02T22:07:11;101175.25;;;21.41;54.50
52469;BME280;38381;53.688;10.776;2022-08-02T22:12:13;101174.69;;;21.30;55.31
52469;BME280;38381;53.688;10.776;2022-08-02T22:17:15;101178.19;;;21.30;54.48
52469;BME280;38381;53.688;10.776;2022-08-02T22:22:15;101185.09;;;21.35;54.32
52469;BME280;38381;53.688;10.776;2022-08-02T22:27:15;101181.91;;;21.25;54.10
52469;BME280;38381;53.688;10.776;2022-08-02T22:32:15;101192.53;;;21.22;53.55
52469;BME280;38381;53.688;10.776;2022-08-02T22:37:36;101197.94;;;21.19;53.83
52469;BME280;38381;53.688;10.776;2022-08-02T22:42:36;101192.41;;;21.26;52.96
52469;BME280;38381;53.688;10.776;2022-08-02T22:47:37;101189.84;;;21.25;52.94
52469;BME280;38381;53.688;10.776;2022-08-02T22:52:37;101198.59;;;21.25;52.88
52469;BME280;38381;53.688;10.776;2022-08-02T22:57:37;101196.94;;;21.23;52.38
52469;BME280;38381;53.688;10.776;2022-08-02T23:02:38;101195.34;;;21.17;52.44
52469;BME280;38381;53.688;10.776;2022-08-02T23:07:38;101200.81;;;21.11;52.68
52469;BME280;38381;53.688;10.776;2022-08-02T23:12:38;101197.00;;;21.20;52.88
52469;BME280;38381;53.688;10.776;2022-08-02T23:17:40;101191.06;;;21.13;53.09
52469;BME280;38381;53.688;10.776;2022-08-02T23:22:59;101192.84;;;21.13;53.09
52469;BME280;38381;53.688;10.776;2022-08-02T23:27:59;101190.31;;;21.08;52.84
52469;BME280;38381;53.688;10.776;2022-08-02T23:32:59;101176.47;;;21.01;53.42
52469;BME280;38381;53.688;10.776;2022-08-02T23:37:59;101182.03;;;20.92;53.51
52469;BME280;38381;53.688;10.776;2022-08-02T23:43:02;101176.69;;;20.94;53.65
52469;BME280;38381;53.688;10.776;2022-08-02T23:48:03;101186.41;;;20.92;53.72
52469;BME280;38381;53.688;10.776;2022-08-02T23:53:03;101175.94;;;20.90;53.84
52469;BME280;38381;53.688;10.776;2022-08-02T23:58:04;101169.78;;;20.89;54.14
